Main page
METAR-TAF:

METAR-TAF

Airports :

Sierra Blanca Regional Airport

Ruidoso, New Mexico, United States

latitude: 33-28N, longitude: 105-32W, elevation: 6809 ft

Current weather observation

The report was made 21 minutes ago, at 02:35 UTC
Wind 6 mph from the West
Temperature 36°F
Humidity 40%
Pressure 30.36 in. Hg
Visibility: 10 miles
Clear sky

METAR: KSRR 150235Z AUTO 28005KT 10SM CLR 02/M10 A3036 RMK AO2

Time: 19:56 (02:56 UTC)


TAF: missing

Weather observations and forecasts of more than 4000 airports (METAR and TAF reports).

The available stations are represented by yellow and red dots on the map.

Hover mouse over dot to see the name of the station.

Then click to see weather observations and forecasts.

To change the map : click on the green buttons with a black cross to zoom in, on the green button with a dash to zoom out, or on the green arrows for adjacent maps.


METAR-TAF: